sensor_id;sensor_type;location;lat;lon;timestamp;P1;durP1;ratioP1;P2;durP2;ratioP2
16284;SDS011;8250;52.426;9.450;2022-07-23T00:00:06;6.50;;;4.18;;
16284;SDS011;8250;52.426;9.450;2022-07-23T00:02:34;6.18;;;4.05;;
16284;SDS011;8250;52.426;9.450;2022-07-23T00:05:00;5.65;;;4.13;;
16284;SDS011;8250;52.426;9.450;2022-07-23T00:07:29;4.75;;;4.18;;
16284;SDS011;8250;52.426;9.450;2022-07-23T00:09:56;4.40;;;3.40;;
16284;SDS011;8250;52.426;9.450;2022-07-23T00:12:23;5.95;;;4.43;;
16284;SDS011;8250;52.426;9.450;2022-07-23T00:14:50;4.88;;;4.10;;
16284;SDS011;8250;52.426;9.450;2022-07-23T00:17:17;5.15;;;4.07;;
16284;SDS011;8250;52.426;9.450;2022-07-23T00:19:43;3.70;;;3.35;;
16284;SDS011;8250;52.426;9.450;2022-07-23T00:22:10;4.80;;;3.63;;
16284;SDS011;8250;52.426;9.450;2022-07-23T00:24:38;4.75;;;3.65;;
16284;SDS011;8250;52.426;9.450;2022-07-23T00:27:05;4.30;;;3.90;;
16284;SDS011;8250;52.426;9.450;2022-07-23T00:29:32;6.10;;;4.43;;
16284;SDS011;8250;52.426;9.450;2022-07-23T00:31:59;5.95;;;4.45;;
16284;SDS011;8250;52.426;9.450;2022-07-23T00:34:26;5.10;;;4.22;;
16284;SDS011;8250;52.426;9.450;2022-07-23T00:36:53;4.22;;;3.83;;
16284;SDS011;8250;52.426;9.450;2022-07-23T00:39:19;5.72;;;4.22;;
16284;SDS011;8250;52.426;9.450;2022-07-23T00:41:48;5.90;;;4.63;;
16284;SDS011;8250;52.426;9.450;2022-07-23T00:44:20;7.95;;;4.75;;
16284;SDS011;8250;52.426;9.450;2022-07-23T00:46:49;4.82;;;4.32;;
16284;SDS011;8250;52.426;9.450;2022-07-23T00:49:19;5.57;;;3.97;;
16284;SDS011;8250;52.426;9.450;2022-07-23T00:51:46;5.18;;;4.68;;
16284;SDS011;8250;52.426;9.450;2022-07-23T00:54:13;5.30;;;4.80;;
16284;SDS011;8250;52.426;9.450;2022-07-23T00:56:41;5.10;;;4.60;;
16284;SDS011;8250;52.426;9.450;2022-07-23T00:59:10;5.90;;;4.25;;
16284;SDS011;8250;52.426;9.450;2022-07-23T01:01:37;6.82;;;4.63;;
16284;SDS011;8250;52.426;9.450;2022-07-23T01:04:04;5.13;;;4.22;;
16284;SDS011;8250;52.426;9.450;2022-07-23T01:06:32;4.57;;;3.90;;
16284;SDS011;8250;52.426;9.450;2022-07-23T01:09:02;4.40;;;4.00;;
16284;SDS011;8250;52.426;9.450;2022-07-23T01:11:29;5.40;;;4.90;;
16284;SDS011;8250;52.426;9.450;2022-07-23T01:13:57;5.30;;;4.35;;
16284;SDS011;8250;52.426;9.450;2022-07-23T01:16:25;5.82;;;4.93;;
16284;SDS011;8250;52.426;9.450;2022-07-23T01:18:52;6.50;;;4.85;;
16284;SDS011;8250;52.426;9.450;2022-07-23T01:21:19;6.95;;;4.80;;
16284;SDS011;8250;52.426;9.450;2022-07-23T01:23:48;6.20;;;4.80;;
16284;SDS011;8250;52.426;9.450;2022-07-23T01:26:15;6.22;;;4.93;;
16284;SDS011;8250;52.426;9.450;2022-07-23T01:28:42;6.95;;;5.10;;
16284;SDS011;8250;52.426;9.450;2022-07-23T01:31:09;5.15;;;4.18;;
16284;SDS011;8250;52.426;9.450;2022-07-23T01:33:37;5.78;;;4.20;;
16284;SDS011;8250;52.426;9.450;2022-07-23T01:36:04;6.43;;;5.07;;
16284;SDS011;8250;52.426;9.450;2022-07-23T01:38:32;7.05;;;5.25;;
16284;SDS011;8250;52.426;9.450;2022-07-23T01:41:00;6.68;;;4.75;;
16284;SDS011;8250;52.426;9.450;2022-07-23T01:43:27;6.75;;;4.78;;
16284;SDS011;8250;52.426;9.450;2022-07-23T01:45:54;6.07;;;4.68;;
16284;SDS011;8250;52.426;9.450;2022-07-23T01:48:21;8.90;;;5.40;;
16284;SDS011;8250;52.426;9.450;2022-07-23T01:50:47;5.15;;;4.47;;
16284;SDS011;8250;52.426;9.450;2022-07-23T01:53:14;5.53;;;4.93;;
16284;SDS011;8250;52.426;9.450;2022-07-23T01:55:41;4.70;;;4.25;;
16284;SDS011;8250;52.426;9.450;2022-07-23T01:58:10;5.30;;;4.55;;
16284;SDS011;8250;52.426;9.450;2022-07-23T02:00:37;5.55;;;4.40;;
16284;SDS011;8250;52.426;9.450;2022-07-23T02:03:04;6.18;;;4.30;;
16284;SDS011;8250;52.426;9.450;2022-07-23T02:05:31;5.60;;;4.63;;
16284;SDS011;8250;52.426;9.450;2022-07-23T02:07:58;6.35;;;4.55;;
16284;SDS011;8250;52.426;9.450;2022-07-23T02:10:25;5.32;;;4.65;;
16284;SDS011;8250;52.426;9.450;2022-07-23T02:12:53;6.47;;;4.47;;
16284;SDS011;8250;52.426;9.450;2022-07-23T02:15:21;6.10;;;4.50;;
16284;SDS011;8250;52.426;9.450;2022-07-23T02:17:48;4.78;;;3.90;;
16284;SDS011;8250;52.426;9.450;2022-07-23T02:20:15;5.15;;;4.10;;
16284;SDS011;8250;52.426;9.450;2022-07-23T02:22:42;4.63;;;3.67;;
16284;SDS011;8250;52.426;9.450;2022-07-23T02:25:09;4.00;;;3.55;;
16284;SDS011;8250;52.426;9.450;2022-07-23T02:27:36;4.65;;;4.10;;
16284;SDS011;8250;52.426;9.450;2022-07-23T02:30:03;5.32;;;4.38;;
16284;SDS011;8250;52.426;9.450;2022-07-23T02:32:33;4.95;;;4.25;;
16284;SDS011;8250;52.426;9.450;2022-07-23T02:35:00;4.38;;;3.90;;
16284;SDS011;8250;52.426;9.450;2022-07-23T02:37:27;5.40;;;4.00;;
16284;SDS011;8250;52.426;9.450;2022-07-23T02:39:54;5.80;;;4.00;;
16284;SDS011;8250;52.426;9.450;2022-07-23T02:42:21;5.90;;;4.20;;
16284;SDS011;8250;52.426;9.450;2022-07-23T02:44:48;4.70;;;3.92;;
16284;SDS011;8250;52.426;9.450;2022-07-23T02:47:15;5.60;;;4.20;;
16284;SDS011;8250;52.426;9.450;2022-07-23T02:49:43;5.57;;;3.85;;
16284;SDS011;8250;52.426;9.450;2022-07-23T02:52:10;4.07;;;3.35;;
16284;SDS011;8250;52.426;9.450;2022-07-23T02:54:37;4.43;;;3.40;;
16284;SDS011;8250;52.426;9.450;2022-07-23T02:57:04;5.43;;;3.75;;
16284;SDS011;8250;52.426;9.450;2022-07-23T02:59:31;4.90;;;3.80;;
16284;SDS011;8250;52.426;9.450;2022-07-23T03:01:58;4.63;;;4.05;;
16284;SDS011;8250;52.426;9.450;2022-07-23T03:04:25;4.88;;;4.05;;
16284;SDS011;8250;52.426;9.450;2022-07-23T03:06:53;5.47;;;4.40;;
16284;SDS011;8250;52.426;9.450;2022-07-23T03:09:20;5.03;;;4.53;;
16284;SDS011;8250;52.426;9.450;2022-07-23T03:11:46;5.18;;;4.53;;
16284;SDS011;8250;52.426;9.450;2022-07-23T03:14:13;6.30;;;4.40;;
16284;SDS011;8250;52.426;9.450;2022-07-23T03:16:41;4.70;;;4.15;;
16284;SDS011;8250;52.426;9.450;2022-07-23T03:19:08;5.13;;;4.20;;
16284;SDS011;8250;52.426;9.450;2022-07-23T03:21:35;5.72;;;4.13;;
16284;SDS011;8250;52.426;9.450;2022-07-23T03:24:06;5.28;;;3.80;;
16284;SDS011;8250;52.426;9.450;2022-07-23T03:26:34;4.65;;;4.13;;
16284;SDS011;8250;52.426;9.450;2022-07-23T03:29:00;4.22;;;3.83;;
16284;SDS011;8250;52.426;9.450;2022-07-23T03:31:28;4.60;;;3.95;;
16284;SDS011;8250;52.426;9.450;2022-07-23T03:33:56;4.88;;;4.38;;
16284;SDS011;8250;52.426;9.450;2022-07-23T03:36:23;4.32;;;3.75;;
16284;SDS011;8250;52.426;9.450;2022-07-23T03:38:50;7.28;;;4.43;;
16284;SDS011;8250;52.426;9.450;2022-07-23T03:41:19;4.95;;;3.75;;
16284;SDS011;8250;52.426;9.450;2022-07-23T03:43:46;5.63;;;4.93;;
16284;SDS011;8250;52.426;9.450;2022-07-23T03:46:13;6.90;;;4.95;;
16284;SDS011;8250;52.426;9.450;2022-07-23T03:48:40;5.68;;;5.05;;
16284;SDS011;8250;52.426;9.450;2022-07-23T03:51:07;8.80;;;6.00;;
16284;SDS011;8250;52.426;9.450;2022-07-23T03:53:33;7.93;;;5.53;;
16284;SDS011;8250;52.426;9.450;2022-07-23T03:56:00;7.13;;;5.22;;
16284;SDS011;8250;52.426;9.450;2022-07-23T03:58:28;6.43;;;5.10;;
16284;SDS011;8250;52.426;9.450;2022-07-23T04:00:55;6.22;;;5.63;;
16284;SDS011;8250;52.426;9.450;2022-07-23T04:03:22;7.10;;;5.25;;
16284;SDS011;8250;52.426;9.450;2022-07-23T04:05:49;8.57;;;5.55;;
16284;SDS011;8250;52.426;9.450;2022-07-23T04:08:16;7.30;;;5.22;;
16284;SDS011;8250;52.426;9.450;2022-07-23T04:10:43;7.55;;;6.25;;
16284;SDS011;8250;52.426;9.450;2022-07-23T04:13:10;6.15;;;4.72;;
16284;SDS011;8250;52.426;9.450;2022-07-23T04:15:38;5.60;;;4.85;;
16284;SDS011;8250;52.426;9.450;2022-07-23T04:18:05;6.82;;;5.57;;
16284;SDS011;8250;52.426;9.450;2022-07-23T04:20:33;6.72;;;5.68;;
16284;SDS011;8250;52.426;9.450;2022-07-23T04:22:59;6.68;;;5.30;;
16284;SDS011;8250;52.426;9.450;2022-07-23T04:25:26;5.40;;;4.82;;
16284;SDS011;8250;52.426;9.450;2022-07-23T04:27:53;6.32;;;5.13;;
16284;SDS011;8250;52.426;9.450;2022-07-23T04:30:20;5.60;;;4.80;;
16284;SDS011;8250;52.426;9.450;2022-07-23T04:32:48;7.32;;;5.40;;
16284;SDS011;8250;52.426;9.450;2022-07-23T04:35:15;6.22;;;5.00;;
16284;SDS011;8250;52.426;9.450;2022-07-23T04:37:42;5.78;;;4.88;;
16284;SDS011;8250;52.426;9.450;2022-07-23T04:40:09;6.35;;;5.40;;
16284;SDS011;8250;52.426;9.450;2022-07-23T04:42:37;5.20;;;4.68;;
16284;SDS011;8250;52.426;9.450;2022-07-23T04:45:04;6.63;;;4.65;;
16284;SDS011;8250;52.426;9.450;2022-07-23T04:47:32;6.65;;;5.45;;
16284;SDS011;8250;52.426;9.450;2022-07-23T04:50:00;6.78;;;5.40;;
16284;SDS011;8250;52.426;9.450;2022-07-23T04:52:27;7.25;;;5.30;;
16284;SDS011;8250;52.426;9.450;2022-07-23T04:54:54;6.13;;;5.40;;
16284;SDS011;8250;52.426;9.450;2022-07-23T04:57:20;4.95;;;4.35;;
16284;SDS011;8250;52.426;9.450;2022-07-23T04:59:47;8.77;;;5.72;;
16284;SDS011;8250;52.426;9.450;2022-07-23T05:02:14;6.57;;;4.80;;
16284;SDS011;8250;52.426;9.450;2022-07-23T05:04:41;5.82;;;4.75;;
16284;SDS011;8250;52.426;9.450;2022-07-23T05:07:09;5.35;;;4.68;;
16284;SDS011;8250;52.426;9.450;2022-07-23T05:09:36;4.88;;;4.38;;
16284;SDS011;8250;52.426;9.450;2022-07-23T05:12:03;6.80;;;5.50;;
16284;SDS011;8250;52.426;9.450;2022-07-23T05:14:30;6.70;;;5.32;;
16284;SDS011;8250;52.426;9.450;2022-07-23T05:16:57;7.05;;;5.78;;
16284;SDS011;8250;52.426;9.450;2022-07-23T05:19:24;7.75;;;5.28;;
16284;SDS011;8250;52.426;9.450;2022-07-23T05:21:51;8.50;;;6.72;;
16284;SDS011;8250;52.426;9.450;2022-07-23T05:24:19;6.25;;;5.63;;
16284;SDS011;8250;52.426;9.450;2022-07-23T05:26:46;6.25;;;5.10;;
16284;SDS011;8250;52.426;9.450;2022-07-23T05:29:13;6.93;;;5.13;;
16284;SDS011;8250;52.426;9.450;2022-07-23T05:31:40;6.18;;;5.18;;
16284;SDS011;8250;52.426;9.450;2022-07-23T05:34:06;6.03;;;5.43;;
16284;SDS011;8250;52.426;9.450;2022-07-23T05:36:33;6.35;;;5.32;;
16284;SDS011;8250;52.426;9.450;2022-07-23T05:39:00;5.78;;;4.53;;
16284;SDS011;8250;52.426;9.450;2022-07-23T05:41:28;6.50;;;5.72;;
16284;SDS011;8250;52.426;9.450;2022-07-23T05:43:56;8.68;;;7.13;;
16284;SDS011;8250;52.426;9.450;2022-07-23T05:46:23;8.13;;;6.68;;
16284;SDS011;8250;52.426;9.450;2022-07-23T05:48:50;8.27;;;6.30;;
16284;SDS011;8250;52.426;9.450;2022-07-23T05:51:19;7.70;;;5.57;;
16284;SDS011;8250;52.426;9.450;2022-07-23T05:53:46;6.13;;;4.85;;
16284;SDS011;8250;52.426;9.450;2022-07-23T05:56:13;6.00;;;5.10;;
16284;SDS011;8250;52.426;9.450;2022-07-23T05:58:41;8.20;;;6.70;;
16284;SDS011;8250;52.426;9.450;2022-07-23T06:01:08;7.85;;;6.03;;
16284;SDS011;8250;52.426;9.450;2022-07-23T06:03:36;6.57;;;5.72;;
16284;SDS011;8250;52.426;9.450;2022-07-23T06:06:03;5.80;;;5.20;;
16284;SDS011;8250;52.426;9.450;2022-07-23T06:08:31;6.45;;;5.63;;
16284;SDS011;8250;52.426;9.450;2022-07-23T06:10:58;6.10;;;5.35;;
16284;SDS011;8250;52.426;9.450;2022-07-23T06:13:25;7.22;;;5.97;;
16284;SDS011;8250;52.426;9.450;2022-07-23T06:15:53;7.10;;;5.95;;
16284;SDS011;8250;52.426;9.450;2022-07-23T06:18:20;6.80;;;5.22;;
16284;SDS011;8250;52.426;9.450;2022-07-23T06:20:47;11.93;;;7.47;;
16284;SDS011;8250;52.426;9.450;2022-07-23T06:23:13;6.60;;;5.35;;
16284;SDS011;8250;52.426;9.450;2022-07-23T06:25:40;6.22;;;5.43;;
16284;SDS011;8250;52.426;9.450;2022-07-23T06:28:07;6.10;;;5.15;;
16284;SDS011;8250;52.426;9.450;2022-07-23T06:30:34;7.20;;;5.95;;
16284;SDS011;8250;52.426;9.450;2022-07-23T06:33:02;10.75;;;7.57;;
16284;SDS011;8250;52.426;9.450;2022-07-23T06:35:29;8.70;;;7.30;;
16284;SDS011;8250;52.426;9.450;2022-07-23T06:37:56;7.82;;;6.05;;
16284;SDS011;8250;52.426;9.450;2022-07-23T06:40:23;6.30;;;5.50;;
16284;SDS011;8250;52.426;9.450;2022-07-23T06:42:50;8.57;;;6.00;;
16284;SDS011;8250;52.426;9.450;2022-07-23T06:45:17;8.68;;;5.80;;
16284;SDS011;8250;52.426;9.450;2022-07-23T06:47:44;8.10;;;5.68;;
16284;SDS011;8250;52.426;9.450;2022-07-23T06:50:12;7.30;;;5.68;;
16284;SDS011;8250;52.426;9.450;2022-07-23T06:52:39;7.35;;;5.20;;
16284;SDS011;8250;52.426;9.450;2022-07-23T06:55:06;4.40;;;3.95;;
16284;SDS011;8250;52.426;9.450;2022-07-23T06:57:33;9.60;;;6.15;;
16284;SDS011;8250;52.426;9.450;2022-07-23T07:00:00;8.80;;;5.70;;
16284;SDS011;8250;52.426;9.450;2022-07-23T07:02:27;6.88;;;4.97;;
16284;SDS011;8250;52.426;9.450;2022-07-23T07:04:54;4.95;;;3.92;;
16284;SDS011;8250;52.426;9.450;2022-07-23T07:07:22;5.95;;;5.13;;
16284;SDS011;8250;52.426;9.450;2022-07-23T07:09:49;6.53;;;4.53;;
16284;SDS011;8250;52.426;9.450;2022-07-23T07:12:16;4.30;;;3.90;;
16284;SDS011;8250;52.426;9.450;2022-07-23T07:14:43;5.15;;;4.00;;
16284;SDS011;8250;52.426;9.450;2022-07-23T07:17:10;5.03;;;4.53;;
16284;SDS011;8250;52.426;9.450;2022-07-23T07:19:36;4.90;;;3.92;;
16284;SDS011;8250;52.426;9.450;2022-07-23T07:22:03;8.63;;;4.05;;
16284;SDS011;8250;52.426;9.450;2022-07-23T07:24:31;4.75;;;4.25;;
16284;SDS011;8250;52.426;9.450;2022-07-23T07:26:58;4.97;;;3.45;;
16284;SDS011;8250;52.426;9.450;2022-07-23T07:29:25;5.88;;;4.63;;
16284;SDS011;8250;52.426;9.450;2022-07-23T07:31:53;5.18;;;3.70;;
16284;SDS011;8250;52.426;9.450;2022-07-23T07:34:20;4.45;;;3.22;;
16284;SDS011;8250;52.426;9.450;2022-07-23T07:36:47;4.70;;;4.25;;
16284;SDS011;8250;52.426;9.450;2022-07-23T07:39:14;8.88;;;4.05;;
16284;SDS011;8250;52.426;9.450;2022-07-23T07:41:43;4.80;;;3.47;;
16284;SDS011;8250;52.426;9.450;2022-07-23T07:44:10;3.40;;;3.03;;
16284;SDS011;8250;52.426;9.450;2022-07-23T07:46:36;4.80;;;3.83;;
16284;SDS011;8250;52.426;9.450;2022-07-23T07:49:03;5.95;;;3.90;;
16284;SDS011;8250;52.426;9.450;2022-07-23T07:51:30;3.47;;;2.88;;
16284;SDS011;8250;52.426;9.450;2022-07-23T07:53:57;4.10;;;3.40;;
16284;SDS011;8250;52.426;9.450;2022-07-23T07:56:24;3.60;;;2.85;;
16284;SDS011;8250;52.426;9.450;2022-07-23T07:58:52;5.00;;;3.53;;
16284;SDS011;8250;52.426;9.450;2022-07-23T08:01:19;3.60;;;2.95;;
16284;SDS011;8250;52.426;9.450;2022-07-23T08:03:46;5.00;;;3.33;;
16284;SDS011;8250;52.426;9.450;2022-07-23T08:06:13;3.30;;;3.00;;
16284;SDS011;8250;52.426;9.450;2022-07-23T08:08:40;4.28;;;3.08;;
16284;SDS011;8250;52.426;9.450;2022-07-23T08:11:07;4.20;;;2.45;;
16284;SDS011;8250;52.426;9.450;2022-07-23T08:13:34;2.65;;;2.20;;
16284;SDS011;8250;52.426;9.450;2022-07-23T08:16:02;4.38;;;2.28;;
16284;SDS011;8250;52.426;9.450;2022-07-23T08:18:29;3.85;;;2.38;;
16284;SDS011;8250;52.426;9.450;2022-07-23T08:20:56;3.70;;;2.08;;
16284;SDS011;8250;52.426;9.450;2022-07-23T08:23:23;2.17;;;1.98;;
16284;SDS011;8250;52.426;9.450;2022-07-23T08:25:50;4.95;;;2.90;;
16284;SDS011;8250;52.426;9.450;2022-07-23T08:28:17;2.05;;;1.85;;
16284;SDS011;8250;52.426;9.450;2022-07-23T08:30:44;4.80;;;2.25;;
16284;SDS011;8250;52.426;9.450;2022-07-23T08:33:13;3.13;;;2.20;;
16284;SDS011;8250;52.426;9.450;2022-07-23T08:35:41;2.50;;;1.92;;
16284;SDS011;8250;52.426;9.450;2022-07-23T08:38:11;2.45;;;2.13;;
16284;SDS011;8250;52.426;9.450;2022-07-23T08:40:39;2.70;;;2.22;;
16284;SDS011;8250;52.426;9.450;2022-07-23T08:43:08;3.00;;;1.75;;
16284;SDS011;8250;52.426;9.450;2022-07-23T08:45:36;3.67;;;1.95;;
16284;SDS011;8250;52.426;9.450;2022-07-23T08:48:05;1.50;;;1.40;;
16284;SDS011;8250;52.426;9.450;2022-07-23T08:50:35;1.73;;;1.60;;
16284;SDS011;8250;52.426;9.450;2022-07-23T08:53:05;2.58;;;1.73;;
16284;SDS011;8250;52.426;9.450;2022-07-23T08:55:33;5.20;;;2.10;;
16284;SDS011;8250;52.426;9.450;2022-07-23T08:58:00;1.67;;;1.58;;
16284;SDS011;8250;52.426;9.450;2022-07-23T09:00:27;3.72;;;2.22;;
16284;SDS011;8250;52.426;9.450;2022-07-23T09:02:54;4.70;;;2.17;;
16284;SDS011;8250;52.426;9.450;2022-07-23T09:05:21;2.70;;;2.03;;
16284;SDS011;8250;52.426;9.450;2022-07-23T09:08:05;3.03;;;2.40;;
16284;SDS011;8250;52.426;9.450;2022-07-23T09:13:27;2.58;;;2.17;;
16284;SDS011;8250;52.426;9.450;2022-07-23T09:15:56;2.47;;;2.28;;
16284;SDS011;8250;52.426;9.450;2022-07-23T09:18:28;2.67;;;2.38;;
16284;SDS011;8250;52.426;9.450;2022-07-23T09:21:16;2.97;;;2.08;;
16284;SDS011;8250;52.426;9.450;2022-07-23T09:23:46;3.13;;;2.70;;
16284;SDS011;8250;52.426;9.450;2022-07-23T09:29:05;4.13;;;2.00;;
16284;SDS011;8250;52.426;9.450;2022-07-23T09:31:44;4.47;;;2.78;;
16284;SDS011;8250;52.426;9.450;2022-07-23T09:34:14;2.58;;;2.13;;
16284;SDS011;8250;52.426;9.450;2022-07-23T09:36:45;2.15;;;1.63;;
16284;SDS011;8250;52.426;9.450;2022-07-23T09:39:14;3.00;;;1.80;;
16284;SDS011;8250;52.426;9.450;2022-07-23T09:41:43;3.10;;;2.40;;
16284;SDS011;8250;52.426;9.450;2022-07-23T09:44:12;2.40;;;2.10;;
16284;SDS011;8250;52.426;9.450;2022-07-23T09:46:41;3.45;;;1.90;;
16284;SDS011;8250;52.426;9.450;2022-07-23T09:49:10;2.15;;;1.92;;
16284;SDS011;8250;52.426;9.450;2022-07-23T09:51:43;3.47;;;2.20;;
16284;SDS011;8250;52.426;9.450;2022-07-23T09:54:23;2.33;;;1.85;;
16284;SDS011;8250;52.426;9.450;2022-07-23T09:56:53;2.00;;;1.80;;
16284;SDS011;8250;52.426;9.450;2022-07-23T09:59:22;2.47;;;2.25;;
16284;SDS011;8250;52.426;9.450;2022-07-23T10:01:52;1.98;;;1.88;;
16284;SDS011;8250;52.426;9.450;2022-07-23T10:04:21;2.17;;;1.83;;
16284;SDS011;8250;52.426;9.450;2022-07-23T10:06:50;3.00;;;2.70;;
16284;SDS011;8250;52.426;9.450;2022-07-23T10:09:21;2.40;;;2.10;;
16284;SDS011;8250;52.426;9.450;2022-07-23T10:11:52;3.17;;;1.95;;
16284;SDS011;8250;52.426;9.450;2022-07-23T10:14:23;2.20;;;2.00;;
16284;SDS011;8250;52.426;9.450;2022-07-23T10:16:52;2.50;;;2.30;;
16284;SDS011;8250;52.426;9.450;2022-07-23T10:19:19;3.60;;;2.28;;
16284;SDS011;8250;52.426;9.450;2022-07-23T10:21:47;3.25;;;2.05;;
16284;SDS011;8250;52.426;9.450;2022-07-23T10:24:18;3.28;;;2.22;;
16284;SDS011;8250;52.426;9.450;2022-07-23T10:26:58;2.58;;;1.63;;
16284;SDS011;8250;52.426;9.450;2022-07-23T10:29:36;2.13;;;1.73;;
16284;SDS011;8250;52.426;9.450;2022-07-23T10:32:16;2.03;;;1.83;;
16284;SDS011;8250;52.426;9.450;2022-07-23T10:34:52;3.47;;;1.83;;
16284;SDS011;8250;52.426;9.450;2022-07-23T10:37:31;2.90;;;1.52;;
16284;SDS011;8250;52.426;9.450;2022-07-23T10:40:10;1.27;;;1.17;;
16284;SDS011;8250;52.426;9.450;2022-07-23T10:42:39;2.03;;;1.10;;
16284;SDS011;8250;52.426;9.450;2022-07-23T10:45:26;1.55;;;1.40;;
16284;SDS011;8250;52.426;9.450;2022-07-23T10:47:56;2.50;;;1.55;;
16284;SDS011;8250;52.426;9.450;2022-07-23T10:50:38;1.70;;;1.58;;
16284;SDS011;8250;52.426;9.450;2022-07-23T10:53:10;3.20;;;1.58;;
16284;SDS011;8250;52.426;9.450;2022-07-23T10:55:47;1.92;;;1.10;;
16284;SDS011;8250;52.426;9.450;2022-07-23T10:58:19;1.42;;;1.27;;
16284;SDS011;8250;52.426;9.450;2022-07-23T11:00:48;1.65;;;1.10;;
16284;SDS011;8250;52.426;9.450;2022-07-23T11:03:28;1.00;;;1.00;;
16284;SDS011;8250;52.426;9.450;2022-07-23T11:06:01;1.60;;;1.30;;
16284;SDS011;8250;52.426;9.450;2022-07-23T11:08:29;1.67;;;1.10;;
16284;SDS011;8250;52.426;9.450;2022-07-23T11:11:08;3.58;;;1.42;;
16284;SDS011;8250;52.426;9.450;2022-07-23T11:13:40;0.95;;;0.95;;
16284;SDS011;8250;52.426;9.450;2022-07-23T11:16:16;0.90;;;0.90;;
16284;SDS011;8250;52.426;9.450;2022-07-23T11:18:54;1.73;;;1.25;;
16284;SDS011;8250;52.426;9.450;2022-07-23T11:21:48;2.00;;;1.00;;
16284;SDS011;8250;52.426;9.450;2022-07-23T11:24:16;2.78;;;1.15;;
16284;SDS011;8250;52.426;9.450;2022-07-23T11:26:50;1.63;;;0.90;;
16284;SDS011;8250;52.426;9.450;2022-07-23T11:29:38;1.88;;;1.00;;
16284;SDS011;8250;52.426;9.450;2022-07-23T11:32:07;2.70;;;0.93;;
16284;SDS011;8250;52.426;9.450;2022-07-23T11:34:44;1.17;;;1.00;;
16284;SDS011;8250;52.426;9.450;2022-07-23T11:37:15;2.55;;;1.27;;
16284;SDS011;8250;52.426;9.450;2022-07-23T11:39:54;1.90;;;1.10;;
16284;SDS011;8250;52.426;9.450;2022-07-23T11:42:23;1.23;;;1.05;;
16284;SDS011;8250;52.426;9.450;2022-07-23T11:44:50;1.58;;;1.20;;
16284;SDS011;8250;52.426;9.450;2022-07-23T11:47:21;1.42;;;0.93;;
16284;SDS011;8250;52.426;9.450;2022-07-23T11:49:52;2.30;;;0.95;;
16284;SDS011;8250;52.426;9.450;2022-07-23T11:52:20;1.00;;;1.00;;
16284;SDS011;8250;52.426;9.450;2022-07-23T11:54:48;0.93;;;0.88;;
16284;SDS011;8250;52.426;9.450;2022-07-23T11:57:16;1.00;;;1.00;;
16284;SDS011;8250;52.426;9.450;2022-07-23T11:59:45;2.28;;;1.10;;
16284;SDS011;8250;52.426;9.450;2022-07-23T12:02:14;1.40;;;0.90;;
16284;SDS011;8250;52.426;9.450;2022-07-23T12:04:41;1.42;;;0.90;;
16284;SDS011;8250;52.426;9.450;2022-07-23T12:07:25;1.60;;;0.88;;
16284;SDS011;8250;52.426;9.450;2022-07-23T12:09:54;1.05;;;0.90;;
16284;SDS011;8250;52.426;9.450;2022-07-23T12:12:21;1.13;;;0.90;;
16284;SDS011;8250;52.426;9.450;2022-07-23T12:14:51;0.98;;;0.88;;
16284;SDS011;8250;52.426;9.450;2022-07-23T12:17:20;1.30;;;0.80;;
16284;SDS011;8250;52.426;9.450;2022-07-23T12:19:53;2.78;;;1.15;;
16284;SDS011;8250;52.426;9.450;2022-07-23T12:22:21;1.17;;;0.85;;
16284;SDS011;8250;52.426;9.450;2022-07-23T12:24:52;1.02;;;0.90;;
16284;SDS011;8250;52.426;9.450;2022-07-23T12:27:23;1.55;;;1.00;;
16284;SDS011;8250;52.426;9.450;2022-07-23T12:29:52;1.05;;;0.80;;
16284;SDS011;8250;52.426;9.450;2022-07-23T12:32:20;0.80;;;0.80;;
16284;SDS011;8250;52.426;9.450;2022-07-23T12:34:50;0.93;;;0.82;;
16284;SDS011;8250;52.426;9.450;2022-07-23T12:37:27;0.85;;;0.82;;
16284;SDS011;8250;52.426;9.450;2022-07-23T12:39:56;0.90;;;0.90;;
16284;SDS011;8250;52.426;9.450;2022-07-23T12:42:23;1.02;;;0.80;;
16284;SDS011;8250;52.426;9.450;2022-07-23T12:45:05;1.25;;;0.82;;
16284;SDS011;8250;52.426;9.450;2022-07-23T12:50:36;0.93;;;0.88;;
16284;SDS011;8250;52.426;9.450;2022-07-23T12:53:09;0.80;;;0.80;;
16284;SDS011;8250;52.426;9.450;2022-07-23T12:55:37;1.08;;;0.90;;
16284;SDS011;8250;52.426;9.450;2022-07-23T12:58:06;1.25;;;0.77;;
16284;SDS011;8250;52.426;9.450;2022-07-23T13:03:24;0.73;;;0.70;;
16284;SDS011;8250;52.426;9.450;2022-07-23T13:05:53;1.70;;;0.65;;
16284;SDS011;8250;52.426;9.450;2022-07-23T13:08:20;0.70;;;0.70;;
16284;SDS011;8250;52.426;9.450;2022-07-23T13:10:48;0.70;;;0.70;;
16284;SDS011;8250;52.426;9.450;2022-07-23T13:13:16;0.82;;;0.80;;
16284;SDS011;8250;52.426;9.450;2022-07-23T13:15:45;1.02;;;0.70;;
16284;SDS011;8250;52.426;9.450;2022-07-23T13:18:14;0.80;;;0.80;;
16284;SDS011;8250;52.426;9.450;2022-07-23T13:20:41;1.70;;;0.90;;
16284;SDS011;8250;52.426;9.450;2022-07-23T13:23:08;1.58;;;0.77;;
16284;SDS011;8250;52.426;9.450;2022-07-23T13:25:35;0.73;;;0.60;;
16284;SDS011;8250;52.426;9.450;2022-07-23T13:28:02;0.80;;;0.80;;
16284;SDS011;8250;52.426;9.450;2022-07-23T13:30:30;1.95;;;0.90;;
16284;SDS011;8250;52.426;9.450;2022-07-23T13:32:57;0.80;;;0.80;;
16284;SDS011;8250;52.426;9.450;2022-07-23T13:35:25;1.67;;;0.80;;
16284;SDS011;8250;52.426;9.450;2022-07-23T13:37:52;0.80;;;0.70;;
16284;SDS011;8250;52.426;9.450;2022-07-23T13:40:18;1.48;;;0.77;;
16284;SDS011;8250;52.426;9.450;2022-07-23T13:42:45;0.70;;;0.70;;
16284;SDS011;8250;52.426;9.450;2022-07-23T13:45:12;1.15;;;0.70;;
16284;SDS011;8250;52.426;9.450;2022-07-23T13:47:39;0.98;;;0.98;;
16284;SDS011;8250;52.426;9.450;2022-07-23T13:50:07;0.70;;;0.63;;
16284;SDS011;8250;52.426;9.450;2022-07-23T13:52:35;0.70;;;0.70;;
16284;SDS011;8250;52.426;9.450;2022-07-23T13:55:02;1.02;;;0.93;;
16284;SDS011;8250;52.426;9.450;2022-07-23T13:57:31;0.93;;;0.85;;
16284;SDS011;8250;52.426;9.450;2022-07-23T13:59:58;1.05;;;0.80;;
16284;SDS011;8250;52.426;9.450;2022-07-23T14:02:25;0.90;;;0.80;;
16284;SDS011;8250;52.426;9.450;2022-07-23T14:04:52;1.90;;;0.88;;
16284;SDS011;8250;52.426;9.450;2022-07-23T14:07:19;1.42;;;0.82;;
16284;SDS011;8250;52.426;9.450;2022-07-23T14:09:47;1.30;;;0.95;;
16284;SDS011;8250;52.426;9.450;2022-07-23T14:12:15;1.23;;;1.02;;
16284;SDS011;8250;52.426;9.450;2022-07-23T14:14:41;2.00;;;0.95;;
16284;SDS011;8250;52.426;9.450;2022-07-23T14:17:09;0.80;;;0.80;;
16284;SDS011;8250;52.426;9.450;2022-07-23T14:19:36;0.90;;;0.88;;
16284;SDS011;8250;52.426;9.450;2022-07-23T14:22:03;0.93;;;0.70;;
16284;SDS011;8250;52.426;9.450;2022-07-23T14:24:30;1.00;;;0.65;;
16284;SDS011;8250;52.426;9.450;2022-07-23T14:26:58;0.55;;;0.52;;
16284;SDS011;8250;52.426;9.450;2022-07-23T14:29:25;0.85;;;0.70;;
16284;SDS011;8250;52.426;9.450;2022-07-23T14:31:52;0.70;;;0.70;;
16284;SDS011;8250;52.426;9.450;2022-07-23T14:34:19;1.20;;;0.90;;
16284;SDS011;8250;52.426;9.450;2022-07-23T14:36:46;0.75;;;0.68;;
16284;SDS011;8250;52.426;9.450;2022-07-23T14:39:13;1.40;;;0.70;;
16284;SDS011;8250;52.426;9.450;2022-07-23T14:41:40;1.70;;;0.90;;
16284;SDS011;8250;52.426;9.450;2022-07-23T14:44:08;1.13;;;0.98;;
16284;SDS011;8250;52.426;9.450;2022-07-23T14:46:35;0.60;;;0.60;;
16284;SDS011;8250;52.426;9.450;2022-07-23T14:49:02;1.65;;;1.00;;
16284;SDS011;8250;52.426;9.450;2022-07-23T14:51:29;0.80;;;0.80;;
16284;SDS011;8250;52.426;9.450;2022-07-23T14:53:56;1.20;;;0.77;;
16284;SDS011;8250;52.426;9.450;2022-07-23T14:56:23;1.95;;;0.80;;
16284;SDS011;8250;52.426;9.450;2022-07-23T14:58:50;1.45;;;0.75;;
16284;SDS011;8250;52.426;9.450;2022-07-23T15:01:18;1.52;;;0.77;;
16284;SDS011;8250;52.426;9.450;2022-07-23T15:03:45;1.40;;;0.75;;
16284;SDS011;8250;52.426;9.450;2022-07-23T15:06:12;2.25;;;0.80;;
16284;SDS011;8250;52.426;9.450;2022-07-23T15:08:39;0.73;;;0.70;;
16284;SDS011;8250;52.426;9.450;2022-07-23T15:11:06;0.90;;;0.90;;
16284;SDS011;8250;52.426;9.450;2022-07-23T15:13:34;2.38;;;0.70;;
16284;SDS011;8250;52.426;9.450;2022-07-23T15:16:01;2.58;;;1.55;;
16284;SDS011;8250;52.426;9.450;2022-07-23T15:18:32;0.95;;;0.70;;